Aviation Digital Data Service (ADDS)

Output produced by METARs form (2156 UTC 20 January 2021)
found at http://aviationweather.gov/metar/data/
 
METAR text: KAVP 202154Z 33009KT 10SM FEW029 SCT035 BKN055 M03/M09 A3002 RMK AO2 SNB22E39 SLP175 P0000 T10331094
Conditions at: KAVP (AVOCA/WILKES B. , PA, US) observed 2154 UTC 20 January 2021
Temperature: -3.3°C (26°F)
Dewpoint: -9.4°C (15°F) [RH = 63%]
Pressure (altimeter): 30.02 inches Hg (1016.7 mb)
[Sea-level pressure: 1017.5 mb]
Winds: from the NNW (330 degrees) at 10 MPH (9 knots; 4.6 m/s)
Visibility: 10 or more miles (16+ km)
Ceiling: 5500 feet AGL
Clouds: few clouds at 2900 feet AGL
scattered clouds at 3500 feet AGL
broken clouds at 5500 feet AGL
Weather: no significant weather observed at this time

METAR text: KAVP 202054Z 32012KT 10SM FEW049 BKN065 M02/M08 A3002 RMK AO2 UPB12E13SNE12 SLP173 P0000 60000 T10171078 51023
Conditions at: KAVP (AVOCA/WILKES B. , PA, US) observed 2054 UTC 20 January 2021
Temperature: -1.7°C (29°F)
Dewpoint: -7.8°C (18°F) [RH = 63%]
Pressure (altimeter): 30.02 inches Hg (1016.7 mb)
[Sea-level pressure: 1017.3 mb]
Winds: from the NW (320 degrees) at 14 MPH (12 knots; 6.2 m/s)
Visibility: 10 or more miles (16+ km)
Ceiling: 6500 feet AGL
Clouds: few clouds at 4900 feet AGL
broken clouds at 6500 feet AGL
Weather: no significant weather observed at this time

METAR text: KAVP 202029Z 32011G23KT 10SM FEW034 SCT050 SCT065 M02/M08 A3001 RMK AO2 UPB12E13SNE12 P0000 T10221078
Conditions at: KAVP (AVOCA/WILKES B. , PA, US) observed 2029 UTC 20 January 2021
Temperature: -2.2°C (28°F)
Dewpoint: -7.8°C (18°F) [RH = 65%]
Pressure (altimeter): 30.01 inches Hg (1016.3 mb)
Winds: from the NW (320 degrees) at 13 MPH (11 knots; 5.7 m/s)
gusting to 26 MPH (23 knots; 11.8 m/s)
Visibility: 10 or more miles (16+ km)
Ceiling: at least 12,000 feet AGL
Clouds: few clouds at 3400 feet AGL
scattered clouds at 5000 feet AGL
scattered clouds at 6500 feet AGL
Weather: no significant weather observed at this time

METAR text: KAVP 202014Z 32013KT 9SM BKN025 BKN037 OVC050 M03/M07 A3001 RMK AO2 UPB12E13SNE12 P0000 T10281072
Conditions at: KAVP (AVOCA/WILKES B. , PA, US) observed 2014 UTC 20 January 2021
Temperature: -2.8°C (27°F)
Dewpoint: -7.2°C (19°F) [RH = 72%]
Pressure (altimeter): 30.01 inches Hg (1016.3 mb)
Winds: from the NW (320 degrees) at 15 MPH (13 knots; 6.7 m/s)
Visibility: 9 miles (14 km)
Ceiling: 2500 feet AGL
Clouds: broken clouds at 2500 feet AGL
broken clouds at 3700 feet AGL
overcast cloud deck at 5000 feet AGL
Weather: no significant weather observed at this time

METAR text: KAVP 202007Z 33016KT 2 1/2SM -SN BKN020 BKN037 OVC060 M03/M07 A3001 RMK AO2 P0000 T10281072
Conditions at: KAVP (AVOCA/WILKES B. , PA, US) observed 2007 UTC 20 January 2021
Temperature: -2.8°C (27°F)
Dewpoint: -7.2°C (19°F) [RH = 72%]
Pressure (altimeter): 30.01 inches Hg (1016.3 mb)
Winds: from the NNW (330 degrees) at 18 MPH (16 knots; 8.2 m/s)
Visibility: 2.50 miles (4.02 km)
Ceiling: 2000 feet AGL
Clouds: broken clouds at 2000 feet AGL
broken clouds at 3700 feet AGL
overcast cloud deck at 6000 feet AGL
Weather: -SN  (light snow)

METAR text: KAVP 201958Z 33016G26KT 1/2SM R04/2800VP6000FT SN BKN013 BKN038 OVC055 M03/M07 A3001 RMK AO2 P0000 T10281067
Conditions at: KAVP (AVOCA/WILKES B. , PA, US) observed 1958 UTC 20 January 2021
Temperature: -2.8°C (27°F)
Dewpoint: -6.7°C (20°F) [RH = 74%]
Pressure (altimeter): 30.01 inches Hg (1016.3 mb)
Winds: from the NNW (330 degrees) at 18 MPH (16 knots; 8.2 m/s)
gusting to 30 MPH (26 knots; 13.4 m/s)
Visibility: 0.50 miles (0.80 km)
Ceiling: 1300 feet AGL
Clouds: broken clouds at 1300 feet AGL
broken clouds at 3800 feet AGL
overcast cloud deck at 5500 feet AGL
Weather: SN  (moderate snow)

Forecast for: KAVP (AVOCA/WILKES B. , PA, US)
Text: KAVP 201720Z 2018/2118 31014G22KT P6SM BKN040
Forecast period: 1800 to 2300 UTC 20 January 2021
Forecast type: FROM: standard forecast or significant change
Winds: from the NW (310 degrees) at 16 MPH (14 knots; 7.2 m/s)
gusting to 25 MPH (22 knots; 11.3 m/s)
Visibility: 6 or more miles (10+ km)
Ceiling: 4000 feet AGL
Clouds: broken clouds at 4000 feet AGL
Weather: no significant weather forecast for this period
Text: FM202300 31008KT P6SM BKN100
Forecast period: 2300 UTC 20 January 2021 to 1200 UTC 21 January 2021
Forecast type: FROM: standard forecast or significant change
Winds: from the NW (310 degrees) at 9 MPH (8 knots; 4.1 m/s)
Visibility: 6 or more miles (10+ km)
Ceiling: 10000 feet AGL
Clouds: broken clouds at 10000 feet AGL
Weather: no significant weather forecast for this period
Text: FM211200 22010G18KT P6SM OVC050
Forecast period: 1200 to 1800 UTC 21 January 2021
Forecast type: FROM: standard forecast or significant change
Winds: from the SW (220 degrees) at 12 MPH (10 knots; 5.1 m/s)
gusting to 21 MPH (18 knots; 9.3 m/s)
Visibility: 6 or more miles (10+ km)
Ceiling: 5000 feet AGL
Clouds: overcast cloud deck at 5000 feet AGL
Weather: no significant weather forecast for this period